createdAt,value
2023-05-18T00:01:06.822Z,65.14
2023-05-18T00:06:07.664Z,65.17
2023-05-18T00:11:02.964Z,65.38
2023-05-18T00:15:56.381Z,65.27
2023-05-18T00:20:51.123Z,65.48
2023-05-18T00:25:44.802Z,65.41
2023-05-18T00:30:37.301Z,65.93
2023-05-18T00:35:30.917Z,65.73
2023-05-18T00:40:27.368Z,66.04
2023-05-18T00:45:21.443Z,65.95
2023-05-18T00:50:15.635Z,66.43
2023-05-18T00:55:09.147Z,66.20
2023-05-18T01:00:03.470Z,66.82
2023-05-18T01:04:57.450Z,66.95
2023-05-18T01:09:51.685Z,66.81
2023-05-18T01:15:02.737Z,67.05
2023-05-18T01:20:28.691Z,67.00
2023-05-18T01:25:30.608Z,67.15
2023-05-18T01:30:25.045Z,67.18
2023-05-18T01:35:18.232Z,67.11
2023-05-18T01:40:11.695Z,67.29
2023-05-18T01:45:10.404Z,67.28
2023-05-18T01:50:11.135Z,67.39
2023-05-18T01:55:06.354Z,67.28
2023-05-18T02:00:00.708Z,67.11
2023-05-18T02:04:53.923Z,67.53
2023-05-18T02:09:47.258Z,67.67
2023-05-18T02:14:40.524Z,67.41
2023-05-18T02:19:33.785Z,67.40
2023-05-18T02:24:27.145Z,67.45
2023-05-18T02:29:20.364Z,67.44
2023-05-18T02:34:13.117Z,67.24
2023-05-18T02:39:11.157Z,66.95
2023-05-18T02:44:04.864Z,67.23
2023-05-18T02:48:58.913Z,67.36
2023-05-18T02:53:52.472Z,67.23
2023-05-18T02:58:46.786Z,66.86
2023-05-18T03:04:00.161Z,67.00
2023-05-18T03:08:56.726Z,66.92
2023-05-18T03:14:01.734Z,65.68
2023-05-18T03:18:59.512Z,66.01
2023-05-18T03:23:57.982Z,65.87
2023-05-18T03:28:51.068Z,65.75
2023-05-18T03:33:44.431Z,66.42
2023-05-18T03:38:37.983Z,65.68
2023-05-18T03:43:35.290Z,66.04
2023-05-18T03:48:28.213Z,66.15
2023-05-18T03:53:22.115Z,65.77
2023-05-18T03:58:17.333Z,65.50
2023-05-18T04:03:15.138Z,65.68
2023-05-18T04:08:09.374Z,66.06
2023-05-18T04:13:02.078Z,65.64
2023-05-18T04:17:55.555Z,65.32
2023-05-18T04:22:48.537Z,65.71
2023-05-18T04:27:51.601Z,65.71
2023-05-18T04:32:44.746Z,65.89
2023-05-18T04:37:40.356Z,65.02
2023-05-18T04:42:37.202Z,65.56
2023-05-18T04:47:35.999Z,65.38
2023-05-18T04:52:32.297Z,65.71
2023-05-18T04:57:24.550Z,65.52
2023-05-18T05:02:18.642Z,65.43
2023-05-18T05:07:12.001Z,65.38
2023-05-18T05:12:08.749Z,65.60
2023-05-18T05:17:02.560Z,65.54
2023-05-18T05:21:56.280Z,65.35
2023-05-18T05:26:50.157Z,65.67
2023-05-18T05:31:43.438Z,65.05
2023-05-18T05:36:36.361Z,65.32
2023-05-18T05:41:31.035Z,65.40
2023-05-18T05:46:26.201Z,65.28
2023-05-18T05:51:20.348Z,65.46
2023-05-18T05:56:13.903Z,65.39
2023-05-18T06:01:09.075Z,65.17
2023-05-18T06:06:02.005Z,66.20
2023-05-18T06:10:58.176Z,65.52
2023-05-18T06:15:52.112Z,65.79
2023-05-18T06:20:45.715Z,65.61
2023-05-18T06:25:39.977Z,65.42
2023-05-18T06:30:48.527Z,65.26
2023-05-18T06:35:46.560Z,65.89
2023-05-18T06:40:40.142Z,66.00
2023-05-18T06:45:36.158Z,65.89
2023-05-18T06:50:41.324Z,66.14
2023-05-18T06:55:35.289Z,65.81
2023-05-18T07:00:28.947Z,66.77
2023-05-18T07:05:22.157Z,65.96
2023-05-18T07:10:16.336Z,66.19
2023-05-18T07:15:10.401Z,65.97
2023-05-18T07:20:06.319Z,65.07
2023-05-18T07:24:59.822Z,65.52
2023-05-18T07:29:53.165Z,65.30
2023-05-18T07:34:48.045Z,65.20
2023-05-18T07:39:42.364Z,65.53
2023-05-18T07:44:36.149Z,65.03
2023-05-18T07:49:29.153Z,65.15
2023-05-18T07:54:22.327Z,65.44
2023-05-18T07:59:14.979Z,65.48
2023-05-18T08:04:07.883Z,65.30
2023-05-18T08:09:00.912Z,65.15
2023-05-18T08:13:54.032Z,65.46
2023-05-18T08:18:47.430Z,65.25
2023-05-18T08:23:42.078Z,64.88
2023-05-18T08:28:35.256Z,64.70
2023-05-18T08:33:29.129Z,64.93
2023-05-18T08:38:22.475Z,64.44
2023-05-18T08:43:23.344Z,64.37
2023-05-18T08:48:17.486Z,64.84
2023-05-18T08:53:14.153Z,64.55
2023-05-18T08:58:09.940Z,65.04
2023-05-18T09:03:06.435Z,64.69
2023-05-18T09:08:00.480Z,65.16
2023-05-18T09:12:56.213Z,65.24
2023-05-18T09:17:50.544Z,64.29
2023-05-18T09:22:43.238Z,63.56
2023-05-18T09:27:37.474Z,62.77
2023-05-18T09:32:39.800Z,62.75
2023-05-18T09:37:33.780Z,62.74
2023-05-18T09:42:37.800Z,63.16
2023-05-18T09:47:31.158Z,63.86
2023-05-18T09:52:23.851Z,63.35
2023-05-18T09:57:22.425Z,63.25
2023-05-18T10:02:18.079Z,63.33
2023-05-18T10:07:15.321Z,62.95
2023-05-18T10:12:28.330Z,62.48
2023-05-18T10:17:22.488Z,62.48
2023-05-18T10:22:21.956Z,62.86
2023-05-18T10:27:15.265Z,63.38
2023-05-18T10:32:13.065Z,63.02
2023-05-18T10:37:07.988Z,63.31
2023-05-18T10:42:02.887Z,63.00
2023-05-18T10:46:57.460Z,63.37
2023-05-18T10:51:53.823Z,63.41
2023-05-18T10:56:48.941Z,63.38
2023-05-18T11:01:44.065Z,63.31
2023-05-18T11:06:37.723Z,63.02
2023-05-18T11:11:31.265Z,63.23
2023-05-18T11:16:33.870Z,64.48
2023-05-18T11:21:29.579Z,65.98
2023-05-18T11:26:29.832Z,65.54
2023-05-18T11:31:46.116Z,66.18
2023-05-18T11:36:47.001Z,65.84
2023-05-18T11:42:01.249Z,66.11
2023-05-18T11:47:12.342Z,65.85
2023-05-18T11:52:08.279Z,66.45
2023-05-18T11:57:01.171Z,66.07
2023-05-18T12:01:58.781Z,65.66
2023-05-18T12:06:53.299Z,65.90
2023-05-18T12:11:47.366Z,65.91
2023-05-18T12:16:41.084Z,65.33
2023-05-18T12:21:37.431Z,66.35
2023-05-18T12:26:31.007Z,65.75
2023-05-18T12:31:24.655Z,65.65
2023-05-18T12:36:17.299Z,66.32
2023-05-18T12:41:11.377Z,65.96
2023-05-18T12:46:07.800Z,65.88
2023-05-18T12:51:02.251Z,65.32
2023-05-18T12:56:00.356Z,65.51
2023-05-18T13:00:53.024Z,65.02
2023-05-18T13:05:47.390Z,65.10
2023-05-18T13:10:44.476Z,65.28
2023-05-18T13:15:38.935Z,65.50
2023-05-18T13:21:15.047Z,64.92
2023-05-18T13:26:07.243Z,64.73
2023-05-18T13:31:01.395Z,64.77
2023-05-18T13:35:59.654Z,64.28
2023-05-18T13:40:53.153Z,64.64
2023-05-18T13:45:46.915Z,64.90
2023-05-18T13:50:41.001Z,64.72
2023-05-18T13:55:34.352Z,64.70
2023-05-18T14:00:27.789Z,65.24
2023-05-18T14:05:20.830Z,65.18
2023-05-18T14:10:15.407Z,64.86
2023-05-18T14:15:08.027Z,65.03
2023-05-18T14:20:01.974Z,65.23
2023-05-18T14:24:56.226Z,64.57
2023-05-18T14:29:50.670Z,64.21
2023-05-18T14:34:44.238Z,65.11
2023-05-18T14:39:38.415Z,65.33
2023-05-18T14:44:31.753Z,64.35
2023-05-18T14:49:25.763Z,64.89
2023-05-18T14:54:20.043Z,64.90
2023-05-18T14:59:14.637Z,65.15
2023-05-18T15:04:09.450Z,64.78
2023-05-18T15:09:02.709Z,64.72
2023-05-18T15:13:55.462Z,64.94
2023-05-18T15:18:49.165Z,64.68
2023-05-18T15:23:42.896Z,64.20
2023-05-18T15:28:36.474Z,64.74
2023-05-18T15:33:29.908Z,64.85
2023-05-18T15:38:22.685Z,64.67
2023-05-18T15:43:16.149Z,64.40
2023-05-18T15:48:08.887Z,64.74
2023-05-18T15:53:02.074Z,64.75
2023-05-18T15:57:55.738Z,64.28
2023-05-18T16:02:50.173Z,64.69
2023-05-18T16:07:44.210Z,64.57
2023-05-18T16:12:37.939Z,64.45
2023-05-18T16:17:30.152Z,64.51
2023-05-18T16:22:23.981Z,64.20
2023-05-18T16:27:17.269Z,64.02
2023-05-18T16:32:10.674Z,63.98
2023-05-18T16:37:03.285Z,63.47
2023-05-18T16:41:55.844Z,63.78
2023-05-18T16:46:47.722Z,63.69
2023-05-18T16:51:42.006Z,63.38
2023-05-18T16:56:36.742Z,63.54
2023-05-18T17:01:34.638Z,63.45
2023-05-18T17:06:27.801Z,63.18
2023-05-18T17:11:21.306Z,62.95
2023-05-18T17:16:16.664Z,63.04
2023-05-18T17:21:09.168Z,63.38
2023-05-18T17:26:06.875Z,63.29
2023-05-18T17:31:00.664Z,62.79
2023-05-18T17:35:55.490Z,61.73
2023-05-18T17:40:49.725Z,55.99
2023-05-18T17:45:44.141Z,54.75
2023-05-18T17:50:38.242Z,58.97
2023-05-18T17:55:30.968Z,60.20
2023-05-18T18:00:23.592Z,59.80
2023-05-18T18:05:18.439Z,59.84
2023-05-18T18:10:12.003Z,59.78
2023-05-18T18:15:05.508Z,59.92
2023-05-18T18:19:59.229Z,60.05
2023-05-18T18:24:52.098Z,60.26
2023-05-18T18:29:45.791Z,59.84
2023-05-18T18:34:38.883Z,59.43
2023-05-18T18:39:32.543Z,59.36
2023-05-18T18:44:26.003Z,59.72
2023-05-18T18:49:19.231Z,59.13
2023-05-18T18:54:13.835Z,59.55
2023-05-18T18:59:06.921Z,59.47
2023-05-18T19:04:00.259Z,59.88
2023-05-18T19:08:54.160Z,59.66
2023-05-18T19:13:47.484Z,59.81
2023-05-18T19:18:40.479Z,60.06
2023-05-18T19:23:33.997Z,60.44
2023-05-18T19:28:27.631Z,60.74
2023-05-18T19:33:21.278Z,60.44
2023-05-18T19:38:14.825Z,60.38
2023-05-18T19:43:08.534Z,60.73
2023-05-18T19:48:03.006Z,60.78
2023-05-18T19:52:55.811Z,60.37
2023-05-18T19:57:49.249Z,60.09
2023-05-18T20:02:42.470Z,60.48
2023-05-18T20:07:35.610Z,59.97
2023-05-18T20:12:35.298Z,60.45
2023-05-18T20:17:28.172Z,60.61
2023-05-18T20:22:21.834Z,60.07
2023-05-18T20:27:15.892Z,60.33
2023-05-18T20:32:08.603Z,60.54
2023-05-18T20:37:01.350Z,60.51
2023-05-18T20:41:54.446Z,60.33
2023-05-18T20:46:48.523Z,60.30
2023-05-18T20:51:42.674Z,60.55
2023-05-18T20:56:37.288Z,60.09
2023-05-18T21:01:31.112Z,60.18
2023-05-18T21:06:25.024Z,60.51
2023-05-18T21:11:18.012Z,60.36
2023-05-18T21:16:11.770Z,60.74
2023-05-18T21:21:05.548Z,61.12
2023-05-18T21:25:58.659Z,61.04
2023-05-18T21:30:57.155Z,61.24
2023-05-18T21:35:50.699Z,61.07
2023-05-18T21:40:44.275Z,61.17
2023-05-18T21:45:37.808Z,60.82
2023-05-18T21:50:35.454Z,61.23
2023-05-18T21:55:29.708Z,60.97
2023-05-18T22:00:22.887Z,60.63
2023-05-18T22:05:16.313Z,60.73
2023-05-18T22:10:09.284Z,60.64
2023-05-18T22:15:03.151Z,60.77
2023-05-18T22:20:01.544Z,60.74
2023-05-18T22:24:54.837Z,60.58
2023-05-18T22:29:48.826Z,60.39
2023-05-18T22:34:43.062Z,60.96
2023-05-18T22:39:36.965Z,60.48
2023-05-18T22:44:29.519Z,60.82
2023-05-18T22:49:23.149Z,60.47
2023-05-18T22:54:16.136Z,60.42
2023-05-18T22:59:10.785Z,60.82
2023-05-18T23:04:03.738Z,60.75
2023-05-18T23:08:57.145Z,60.35
2023-05-18T23:13:51.638Z,60.53
2023-05-18T23:18:47.157Z,60.70
2023-05-18T23:23:40.762Z,60.71
2023-05-18T23:28:34.525Z,60.83
2023-05-18T23:33:29.610Z,60.34
2023-05-18T23:38:24.318Z,60.30
2023-05-18T23:43:18.085Z,60.56
2023-05-18T23:48:11.759Z,60.36
2023-05-18T23:53:06.583Z,60.77
2023-05-18T23:58:01.591Z,60.32
